sensor_id;sensor_type;location;lat;lon;timestamp;pressure;altitude;pressure_sealevel;temperature;humidity
73860;BME280;62197;51.632;13.700;2023-10-31T00:00:50;98413.69;;;12.33;84.99
73860;BME280;62197;51.632;13.700;2023-10-31T00:03:15;98402.66;;;12.22;85.44
73860;BME280;62197;51.632;13.700;2023-10-31T00:05:41;98389.03;;;12.19;85.73
73860;BME280;62197;51.632;13.700;2023-10-31T00:08:06;98393.69;;;12.17;86.35
73860;BME280;62197;51.632;13.700;2023-10-31T00:10:32;98384.53;;;12.13;86.69
73860;BME280;62197;51.632;13.700;2023-10-31T00:12:57;98384.03;;;12.03;87.36
73860;BME280;62197;51.632;13.700;2023-10-31T00:15:22;98377.50;;;11.99;87.42
73860;BME280;62197;51.632;13.700;2023-10-31T00:17:50;98380.16;;;11.99;87.88
73860;BME280;62197;51.632;13.700;2023-10-31T00:20:15;98377.38;;;12.07;87.59
73860;BME280;62197;51.632;13.700;2023-10-31T00:22:41;98373.66;;;11.95;88.13
73860;BME280;62197;51.632;13.700;2023-10-31T00:25:09;98368.31;;;11.88;88.51
73860;BME280;62197;51.632;13.700;2023-10-31T00:27:34;98357.53;;;11.83;88.75
73860;BME280;62197;51.632;13.700;2023-10-31T00:30:00;98361.13;;;12.03;88.32
73860;BME280;62197;51.632;13.700;2023-10-31T00:32:25;98365.22;;;12.06;88.04
73860;BME280;62197;51.632;13.700;2023-10-31T00:34:51;98362.19;;;11.81;88.92
73860;BME280;62197;51.632;13.700;2023-10-31T00:37:16;98362.47;;;11.71;89.49
73860;BME280;62197;51.632;13.700;2023-10-31T00:39:42;98364.47;;;11.69;89.53
73860;BME280;62197;51.632;13.700;2023-10-31T00:42:07;98366.28;;;11.69;89.93
73860;BME280;62197;51.632;13.700;2023-10-31T00:44:33;98368.72;;;11.70;90.28
73860;BME280;62197;51.632;13.700;2023-10-31T00:46:58;98356.56;;;11.69;90.11
73860;BME280;62197;51.632;13.700;2023-10-31T00:49:24;98352.09;;;11.70;89.99
73860;BME280;62197;51.632;13.700;2023-10-31T00:51:49;98361.19;;;11.67;89.84
73860;BME280;62197;51.632;13.700;2023-10-31T00:54:18;98368.53;;;11.72;90.19
73860;BME280;62197;51.632;13.700;2023-10-31T00:56:43;98372.00;;;11.72;90.29
73860;BME280;62197;51.632;13.700;2023-10-31T00:59:11;98371.47;;;11.62;90.54
73860;BME280;62197;51.632;13.700;2023-10-31T01:01:36;98376.94;;;11.60;90.71
73860;BME280;62197;51.632;13.700;2023-10-31T01:04:05;98386.66;;;11.60;91.11
73860;BME280;62197;51.632;13.700;2023-10-31T01:06:30;98376.19;;;11.67;90.42
73860;BME280;62197;51.632;13.700;2023-10-31T01:08:55;98387.28;;;11.62;90.46
73860;BME280;62197;51.632;13.700;2023-10-31T01:11:21;98392.28;;;11.57;90.06
73860;BME280;62197;51.632;13.700;2023-10-31T01:13:46;98390.66;;;11.56;90.48
73860;BME280;62197;51.632;13.700;2023-10-31T01:16:12;98388.75;;;11.50;91.00
73860;BME280;62197;51.632;13.700;2023-10-31T01:18:37;98388.22;;;11.54;90.76
73860;BME280;62197;51.632;13.700;2023-10-31T01:21:02;98384.31;;;11.50;90.97
73860;BME280;62197;51.632;13.700;2023-10-31T01:23:28;98380.22;;;11.48;90.85
73860;BME280;62197;51.632;13.700;2023-10-31T01:25:53;98371.97;;;11.51;91.29
73860;BME280;62197;51.632;13.700;2023-10-31T01:28:19;98370.28;;;11.65;90.88
73860;BME280;62197;51.632;13.700;2023-10-31T01:30:44;98368.41;;;11.58;91.14
73860;BME280;62197;51.632;13.700;2023-10-31T01:33:10;98358.63;;;11.52;91.41
73860;BME280;62197;51.632;13.700;2023-10-31T01:35:38;98356.16;;;11.51;91.55
73860;BME280;62197;51.632;13.700;2023-10-31T01:38:03;98355.91;;;11.46;91.59
73860;BME280;62197;51.632;13.700;2023-10-31T01:40:29;98343.97;;;11.43;92.06
73860;BME280;62197;51.632;13.700;2023-10-31T01:42:55;98340.06;;;11.39;92.50
73860;BME280;62197;51.632;13.700;2023-10-31T01:45:20;98338.44;;;11.38;92.23
73860;BME280;62197;51.632;13.700;2023-10-31T01:47:47;98325.84;;;11.34;92.71
73860;BME280;62197;51.632;13.700;2023-10-31T01:50:13;98326.84;;;11.33;92.71
73860;BME280;62197;51.632;13.700;2023-10-31T01:52:38;98320.75;;;11.32;93.01
73860;BME280;62197;51.632;13.700;2023-10-31T01:55:04;98318.94;;;11.33;92.92
73860;BME280;62197;51.632;13.700;2023-10-31T01:57:30;98315.75;;;11.37;93.03
73860;BME280;62197;51.632;13.700;2023-10-31T01:59:55;98315.13;;;11.35;93.18
73860;BME280;62197;51.632;13.700;2023-10-31T02:02:23;98308.22;;;11.34;93.15
73860;BME280;62197;51.632;13.700;2023-10-31T02:04:50;98311.88;;;11.33;93.36
73860;BME280;62197;51.632;13.700;2023-10-31T02:07:15;98306.16;;;11.30;93.86
73860;BME280;62197;51.632;13.700;2023-10-31T02:09:41;98299.91;;;11.31;93.73
73860;BME280;62197;51.632;13.700;2023-10-31T02:12:06;98305.78;;;11.33;93.98
73860;BME280;62197;51.632;13.700;2023-10-31T02:14:34;98298.88;;;11.32;93.98
73860;BME280;62197;51.632;13.700;2023-10-31T02:17:00;98296.06;;;11.33;93.88
73860;BME280;62197;51.632;13.700;2023-10-31T02:19:26;98300.16;;;11.36;94.24
73860;BME280;62197;51.632;13.700;2023-10-31T02:21:51;98291.88;;;11.39;94.15
73860;BME280;62197;51.632;13.700;2023-10-31T02:24:17;98294.13;;;11.42;94.68
73860;BME280;62197;51.632;13.700;2023-10-31T02:26:42;98287.88;;;11.43;94.90
73860;BME280;62197;51.632;13.700;2023-10-31T02:29:08;98289.91;;;11.47;94.78
73860;BME280;62197;51.632;13.700;2023-10-31T02:31:33;98283.25;;;11.51;94.96
73860;BME280;62197;51.632;13.700;2023-10-31T02:33:58;98282.69;;;11.56;94.84
73860;BME280;62197;51.632;13.700;2023-10-31T02:36:24;98291.84;;;11.60;94.56
73860;BME280;62197;51.632;13.700;2023-10-31T02:38:49;98291.47;;;11.63;94.36
73860;BME280;62197;51.632;13.700;2023-10-31T02:41:15;98292.09;;;11.65;94.50
73860;BME280;62197;51.632;13.700;2023-10-31T02:43:41;98289.47;;;11.65;94.47
73860;BME280;62197;51.632;13.700;2023-10-31T02:46:07;98303.25;;;11.67;94.49
73860;BME280;62197;51.632;13.700;2023-10-31T02:48:32;98300.81;;;11.66;94.28
73860;BME280;62197;51.632;13.700;2023-10-31T02:51:06;98304.88;;;11.68;94.66
73860;BME280;62197;51.632;13.700;2023-10-31T02:53:32;98309.97;;;11.70;94.48
73860;BME280;62197;51.632;13.700;2023-10-31T02:55:58;98296.22;;;11.74;94.42
73860;BME280;62197;51.632;13.700;2023-10-31T02:58:23;98308.97;;;11.71;94.70
73860;BME280;62197;51.632;13.700;2023-10-31T03:00:49;98308.16;;;11.70;94.63
73860;BME280;62197;51.632;13.700;2023-10-31T03:03:15;98310.59;;;11.72;94.69
73860;BME280;62197;51.632;13.700;2023-10-31T03:05:40;98314.66;;;11.74;94.88
73860;BME280;62197;51.632;13.700;2023-10-31T03:08:05;98312.41;;;11.71;94.96
73860;BME280;62197;51.632;13.700;2023-10-31T03:10:33;98313.41;;;11.70;94.84
73860;BME280;62197;51.632;13.700;2023-10-31T03:12:58;98320.94;;;11.73;94.86
73860;BME280;62197;51.632;13.700;2023-10-31T03:15:24;98325.59;;;11.71;94.79
73860;BME280;62197;51.632;13.700;2023-10-31T03:17:49;98330.84;;;11.71;94.92
73860;BME280;62197;51.632;13.700;2023-10-31T03:20:15;98337.13;;;11.70;94.57
73860;BME280;62197;51.632;13.700;2023-10-31T03:22:40;98320.31;;;11.71;94.90
73860;BME280;62197;51.632;13.700;2023-10-31T03:25:06;98324.97;;;11.69;94.54
73860;BME280;62197;51.632;13.700;2023-10-31T03:27:31;98330.59;;;11.66;94.89
73860;BME280;62197;51.632;13.700;2023-10-31T03:29:57;98323.50;;;11.67;95.02
73860;BME280;62197;51.632;13.700;2023-10-31T03:32:22;98313.16;;;11.65;95.00
73860;BME280;62197;51.632;13.700;2023-10-31T03:34:47;98316.19;;;11.62;94.83
73860;BME280;62197;51.632;13.700;2023-10-31T03:37:13;98321.44;;;11.62;95.14
73860;BME280;62197;51.632;13.700;2023-10-31T03:39:38;98319.00;;;11.60;95.25
73860;BME280;62197;51.632;13.700;2023-10-31T03:42:03;98322.44;;;11.61;94.96
73860;BME280;62197;51.632;13.700;2023-10-31T03:44:30;98318.19;;;11.60;95.01
73860;BME280;62197;51.632;13.700;2023-10-31T03:46:55;98319.19;;;11.59;95.10
73860;BME280;62197;51.632;13.700;2023-10-31T03:49:21;98313.72;;;11.60;95.30
73860;BME280;62197;51.632;13.700;2023-10-31T03:51:46;98314.94;;;11.58;94.96
73860;BME280;62197;51.632;13.700;2023-10-31T03:54:11;98323.00;;;11.56;95.20
73860;BME280;62197;51.632;13.700;2023-10-31T03:56:41;98323.63;;;11.58;94.91
73860;BME280;62197;51.632;13.700;2023-10-31T03:59:07;98329.91;;;11.57;95.01
73860;BME280;62197;51.632;13.700;2023-10-31T04:01:33;98335.34;;;11.56;95.12
73860;BME280;62197;51.632;13.700;2023-10-31T04:03:58;98336.38;;;11.55;95.34
73860;BME280;62197;51.632;13.700;2023-10-31T04:06:23;98336.56;;;11.53;94.97
73860;BME280;62197;51.632;13.700;2023-10-31T04:08:49;98338.38;;;11.53;95.14
73860;BME280;62197;51.632;13.700;2023-10-31T04:11:14;98335.72;;;11.53;95.02
73860;BME280;62197;51.632;13.700;2023-10-31T04:13:39;98337.56;;;11.52;95.09
73860;BME280;62197;51.632;13.700;2023-10-31T04:16:05;98333.09;;;11.53;95.04
73860;BME280;62197;51.632;13.700;2023-10-31T04:18:30;98332.72;;;11.56;95.27
73860;BME280;62197;51.632;13.700;2023-10-31T04:20:55;98339.38;;;11.52;95.05
73860;BME280;62197;51.632;13.700;2023-10-31T04:23:21;98334.09;;;11.52;95.35
73860;BME280;62197;51.632;13.700;2023-10-31T04:25:46;98332.97;;;11.61;95.15
73860;BME280;62197;51.632;13.700;2023-10-31T04:28:12;98329.47;;;11.54;94.88
73860;BME280;62197;51.632;13.700;2023-10-31T04:30:39;98320.94;;;11.52;94.89
73860;BME280;62197;51.632;13.700;2023-10-31T04:33:04;98321.94;;;11.51;94.66
73860;BME280;62197;51.632;13.700;2023-10-31T04:35:29;98308.78;;;11.51;94.38
73860;BME280;62197;51.632;13.700;2023-10-31T04:37:55;98310.41;;;11.52;94.71
73860;BME280;62197;51.632;13.700;2023-10-31T04:40:21;98316.06;;;11.49;94.70
73860;BME280;62197;51.632;13.700;2023-10-31T04:42:47;98303.88;;;11.48;94.08
73860;BME280;62197;51.632;13.700;2023-10-31T04:45:13;98306.72;;;11.46;94.26
73860;BME280;62197;51.632;13.700;2023-10-31T04:47:38;98309.53;;;11.45;94.28
73860;BME280;62197;51.632;13.700;2023-10-31T04:50:04;98311.56;;;11.43;94.32
73860;BME280;62197;51.632;13.700;2023-10-31T04:52:29;98317.63;;;11.43;93.74
73860;BME280;62197;51.632;13.700;2023-10-31T04:54:55;98324.50;;;11.44;93.97
73860;BME280;62197;51.632;13.700;2023-10-31T04:57:23;98319.06;;;11.46;93.84
73860;BME280;62197;51.632;13.700;2023-10-31T04:59:48;98316.59;;;11.44;94.00
73860;BME280;62197;51.632;13.700;2023-10-31T05:02:14;98326.72;;;11.41;94.22
73860;BME280;62197;51.632;13.700;2023-10-31T05:04:39;98335.63;;;11.40;94.61
73860;BME280;62197;51.632;13.700;2023-10-31T05:07:05;98327.72;;;11.40;94.64
73860;BME280;62197;51.632;13.700;2023-10-31T05:09:30;98338.69;;;11.43;94.66
73860;BME280;62197;51.632;13.700;2023-10-31T05:11:56;98348.19;;;11.44;94.38
73860;BME280;62197;51.632;13.700;2023-10-31T05:14:21;98341.53;;;11.42;94.52
73860;BME280;62197;51.632;13.700;2023-10-31T05:16:47;98343.34;;;11.41;94.61
73860;BME280;62197;51.632;13.700;2023-10-31T05:19:15;98345.97;;;11.41;94.77
73860;BME280;62197;51.632;13.700;2023-10-31T05:21:40;98342.72;;;11.39;95.11
73860;BME280;62197;51.632;13.700;2023-10-31T05:24:06;98352.06;;;11.42;94.78
73860;BME280;62197;51.632;13.700;2023-10-31T05:26:32;98352.47;;;11.45;94.97
73860;BME280;62197;51.632;13.700;2023-10-31T05:28:57;98362.81;;;11.47;94.70
73860;BME280;62197;51.632;13.700;2023-10-31T05:31:24;98359.81;;;11.50;94.82
73860;BME280;62197;51.632;13.700;2023-10-31T05:33:50;98357.81;;;11.52;94.55
73860;BME280;62197;51.632;13.700;2023-10-31T05:36:23;98355.78;;;11.54;94.51
73860;BME280;62197;51.632;13.700;2023-10-31T05:38:48;98358.69;;;11.59;94.47
73860;BME280;62197;51.632;13.700;2023-10-31T05:41:15;98367.22;;;11.61;94.26
73860;BME280;62197;51.632;13.700;2023-10-31T05:43:41;98364.84;;;11.66;94.25
73860;BME280;62197;51.632;13.700;2023-10-31T05:46:07;98364.47;;;11.69;94.04
73860;BME280;62197;51.632;13.700;2023-10-31T05:48:39;98352.66;;;11.65;93.95
73860;BME280;62197;51.632;13.700;2023-10-31T05:51:11;98360.75;;;11.64;94.20
73860;BME280;62197;51.632;13.700;2023-10-31T05:53:38;98366.03;;;11.64;93.97
73860;BME280;62197;51.632;13.700;2023-10-31T05:56:04;98369.28;;;11.66;93.69
73860;BME280;62197;51.632;13.700;2023-10-31T05:58:30;98376.19;;;11.67;94.05
73860;BME280;62197;51.632;13.700;2023-10-31T06:00:55;98378.19;;;11.65;93.90
73860;BME280;62197;51.632;13.700;2023-10-31T06:03:21;98380.63;;;11.66;93.92
73860;BME280;62197;51.632;13.700;2023-10-31T06:05:46;98403.34;;;11.67;93.60
73860;BME280;62197;51.632;13.700;2023-10-31T06:08:12;98410.22;;;11.68;93.50
73860;BME280;62197;51.632;13.700;2023-10-31T06:10:37;98406.16;;;11.66;94.07
73860;BME280;62197;51.632;13.700;2023-10-31T06:13:02;98414.88;;;11.66;93.76
73860;BME280;62197;51.632;13.700;2023-10-31T06:15:28;98418.94;;;11.69;93.40
73860;BME280;62197;51.632;13.700;2023-10-31T06:17:53;98424.41;;;11.67;93.56
73860;BME280;62197;51.632;13.700;2023-10-31T06:20:19;98435.56;;;11.69;93.91
73860;BME280;62197;51.632;13.700;2023-10-31T06:22:44;98426.28;;;11.73;93.08
73860;BME280;62197;51.632;13.700;2023-10-31T06:25:15;98432.38;;;11.74;93.17
73860;BME280;62197;51.632;13.700;2023-10-31T06:27:44;98434.66;;;11.77;92.85
73860;BME280;62197;51.632;13.700;2023-10-31T06:30:10;98442.38;;;11.78;92.27
73860;BME280;62197;51.632;13.700;2023-10-31T06:32:35;98450.09;;;11.80;92.48
73860;BME280;62197;51.632;13.700;2023-10-31T06:35:02;98440.75;;;11.77;92.59
73860;BME280;62197;51.632;13.700;2023-10-31T06:37:27;98449.63;;;11.76;92.85
73860;BME280;62197;51.632;13.700;2023-10-31T06:39:52;98456.56;;;11.77;92.65
73860;BME280;62197;51.632;13.700;2023-10-31T06:42:18;98444.03;;;11.79;92.10
73860;BME280;62197;51.632;13.700;2023-10-31T06:44:43;98453.81;;;11.85;91.86
73860;BME280;62197;51.632;13.700;2023-10-31T06:47:09;98458.72;;;11.88;91.78
73860;BME280;62197;51.632;13.700;2023-10-31T06:49:34;98453.44;;;11.88;91.77
73860;BME280;62197;51.632;13.700;2023-10-31T06:51:59;98467.63;;;11.87;91.79
73860;BME280;62197;51.632;13.700;2023-10-31T06:54:25;98478.16;;;11.87;91.50
73860;BME280;62197;51.632;13.700;2023-10-31T06:56:50;98479.41;;;11.91;91.47
73860;BME280;62197;51.632;13.700;2023-10-31T06:59:16;98483.06;;;11.90;90.52
73860;BME280;62197;51.632;13.700;2023-10-31T07:01:42;98481.16;;;11.84;90.70
73860;BME280;62197;51.632;13.700;2023-10-31T07:04:08;98498.78;;;11.84;90.54
73860;BME280;62197;51.632;13.700;2023-10-31T07:06:34;98486.69;;;11.89;89.86
73860;BME280;62197;51.632;13.700;2023-10-31T07:08:59;98491.69;;;11.84;89.80
73860;BME280;62197;51.632;13.700;2023-10-31T07:11:30;98496.97;;;11.84;88.33
73860;BME280;62197;51.632;13.700;2023-10-31T07:13:57;98498.59;;;11.85;88.16
73860;BME280;62197;51.632;13.700;2023-10-31T07:16:22;98498.78;;;11.84;88.22
73860;BME280;62197;51.632;13.700;2023-10-31T07:18:48;98510.13;;;11.84;87.28
73860;BME280;62197;51.632;13.700;2023-10-31T07:21:13;98513.31;;;11.80;86.91
73860;BME280;62197;51.632;13.700;2023-10-31T07:23:39;98523.75;;;11.73;86.67
73860;BME280;62197;51.632;13.700;2023-10-31T07:26:04;98525.94;;;11.70;85.67
73860;BME280;62197;51.632;13.700;2023-10-31T07:28:30;98526.13;;;11.68;85.57
73860;BME280;62197;51.632;13.700;2023-10-31T07:30:55;98519.75;;;11.63;85.41
73860;BME280;62197;51.632;13.700;2023-10-31T07:33:20;98543.38;;;11.56;86.80
73860;BME280;62197;51.632;13.700;2023-10-31T07:35:46;98538.28;;;11.54;85.13
73860;BME280;62197;51.632;13.700;2023-10-31T07:38:11;98558.53;;;11.54;85.11
73860;BME280;62197;51.632;13.700;2023-10-31T07:40:36;98552.19;;;11.48;85.90
73860;BME280;62197;51.632;13.700;2023-10-31T07:43:02;98555.91;;;11.54;84.52
73860;BME280;62197;51.632;13.700;2023-10-31T07:45:27;98555.19;;;11.60;82.55
73860;BME280;62197;51.632;13.700;2023-10-31T07:47:52;98566.34;;;11.62;82.61
73860;BME280;62197;51.632;13.700;2023-10-31T07:50:18;98577.69;;;11.63;82.08
73860;BME280;62197;51.632;13.700;2023-10-31T07:52:43;98575.88;;;11.63;81.84
73860;BME280;62197;51.632;13.700;2023-10-31T07:55:11;98572.25;;;11.64;81.72
73860;BME280;62197;51.632;13.700;2023-10-31T07:57:37;98578.88;;;11.60;81.63
73860;BME280;62197;51.632;13.700;2023-10-31T08:00:02;98573.88;;;11.65;80.15
73860;BME280;62197;51.632;13.700;2023-10-31T08:02:28;98577.16;;;11.67;80.68
73860;BME280;62197;51.632;13.700;2023-10-31T08:04:53;98569.88;;;11.69;79.76
73860;BME280;62197;51.632;13.700;2023-10-31T08:07:18;98593.41;;;11.71;80.66
73860;BME280;62197;51.632;13.700;2023-10-31T08:09:44;98602.50;;;11.68;81.05
73860;BME280;62197;51.632;13.700;2023-10-31T08:12:09;98605.72;;;11.78;79.56
73860;BME280;62197;51.632;13.700;2023-10-31T08:14:35;98608.59;;;11.83;78.96
73860;BME280;62197;51.632;13.700;2023-10-31T08:17:00;98618.06;;;11.92;78.71
73860;BME280;62197;51.632;13.700;2023-10-31T08:19:25;98618.94;;;12.00;78.96
73860;BME280;62197;51.632;13.700;2023-10-31T08:21:51;98616.94;;;12.02;77.69
73860;BME280;62197;51.632;13.700;2023-10-31T08:24:16;98625.56;;;12.10;77.05
73860;BME280;62197;51.632;13.700;2023-10-31T08:26:41;98628.97;;;12.25;76.67
73860;BME280;62197;51.632;13.700;2023-10-31T08:29:07;98619.59;;;12.38;77.52
73860;BME280;62197;51.632;13.700;2023-10-31T08:31:32;98612.63;;;12.30;75.32
73860;BME280;62197;51.632;13.700;2023-10-31T08:33:58;98614.63;;;12.28;75.63
73860;BME280;62197;51.632;13.700;2023-10-31T08:36:23;98610.25;;;12.20;76.33
73860;BME280;62197;51.632;13.700;2023-10-31T08:38:49;98622.22;;;12.38;75.47
73860;BME280;62197;51.632;13.700;2023-10-31T08:41:14;98626.94;;;12.64;73.75
73860;BME280;62197;51.632;13.700;2023-10-31T08:43:45;98636.63;;;12.78;72.58
73860;BME280;62197;51.632;13.700;2023-10-31T08:46:10;98631.81;;;12.81;72.00
73860;BME280;62197;51.632;13.700;2023-10-31T08:48:36;98639.66;;;12.96;72.38
73860;BME280;62197;51.632;13.700;2023-10-31T08:51:01;98639.50;;;13.04;72.18
73860;BME280;62197;51.632;13.700;2023-10-31T08:53:27;98633.59;;;13.23;71.95
73860;BME280;62197;51.632;13.700;2023-10-31T08:55:52;98653.09;;;13.22;72.12
73860;BME280;62197;51.632;13.700;2023-10-31T08:58:17;98649.50;;;13.30;71.06
73860;BME280;62197;51.632;13.700;2023-10-31T09:00:45;98641.25;;;13.40;70.75
73860;BME280;62197;51.632;13.700;2023-10-31T09:03:11;98640.97;;;13.28;70.55
73860;BME280;62197;51.632;13.700;2023-10-31T09:05:36;98643.28;;;13.16;71.65
73860;BME280;62197;51.632;13.700;2023-10-31T09:08:02;98663.59;;;13.16;72.13
73860;BME280;62197;51.632;13.700;2023-10-31T09:10:27;98655.72;;;13.01;72.22
73860;BME280;62197;51.632;13.700;2023-10-31T09:12:52;98675.53;;;12.90;70.55
73860;BME280;62197;51.632;13.700;2023-10-31T09:15:20;98670.53;;;13.02;71.52
73860;BME280;62197;51.632;13.700;2023-10-31T09:17:46;98671.63;;;13.29;71.01
73860;BME280;62197;51.632;13.700;2023-10-31T09:20:12;98658.97;;;13.46;70.67
73860;BME280;62197;51.632;13.700;2023-10-31T09:22:38;98687.34;;;13.37;70.45
73860;BME280;62197;51.632;13.700;2023-10-31T09:25:03;98686.47;;;13.30;70.36
73860;BME280;62197;51.632;13.700;2023-10-31T09:27:29;98688.28;;;13.08;69.80
73860;BME280;62197;51.632;13.700;2023-10-31T09:29:54;98694.81;;;12.91;71.04
73860;BME280;62197;51.632;13.700;2023-10-31T09:32:20;98691.66;;;12.81;71.88
73860;BME280;62197;51.632;13.700;2023-10-31T09:34:45;98687.53;;;12.93;70.46
73860;BME280;62197;51.632;13.700;2023-10-31T09:37:10;98708.28;;;12.96;70.53
73860;BME280;62197;51.632;13.700;2023-10-31T09:39:36;98718.19;;;12.94;70.57
73860;BME280;62197;51.632;13.700;2023-10-31T09:42:01;98688.09;;;12.88;70.38
73860;BME280;62197;51.632;13.700;2023-10-31T09:44:26;98708.94;;;12.83;70.61
73860;BME280;62197;51.632;13.700;2023-10-31T09:46:52;98705.72;;;12.67;70.72
73860;BME280;62197;51.632;13.700;2023-10-31T09:49:18;98721.53;;;12.67;69.97
73860;BME280;62197;51.632;13.700;2023-10-31T09:51:45;98709.50;;;12.79;69.80
73860;BME280;62197;51.632;13.700;2023-10-31T09:54:12;98718.66;;;12.98;68.77
73860;BME280;62197;51.632;13.700;2023-10-31T09:56:41;98728.66;;;13.23;68.17
73860;BME280;62197;51.632;13.700;2023-10-31T09:59:07;98714.72;;;13.57;67.80
73860;BME280;62197;51.632;13.700;2023-10-31T10:01:33;98731.63;;;13.35;67.13
73860;BME280;62197;51.632;13.700;2023-10-31T10:03:59;98718.47;;;13.20;68.60
73860;BME280;62197;51.632;13.700;2023-10-31T10:06:25;98694.75;;;12.84;67.58
73860;BME280;62197;51.632;13.700;2023-10-31T10:08:51;98705.16;;;12.71;68.70
73860;BME280;62197;51.632;13.700;2023-10-31T10:11:16;98710.31;;;13.37;66.00
73860;BME280;62197;51.632;13.700;2023-10-31T10:13:42;98710.00;;;13.10;65.96
73860;BME280;62197;51.632;13.700;2023-10-31T10:16:08;98712.84;;;13.79;64.65
73860;BME280;62197;51.632;13.700;2023-10-31T10:18:36;98723.19;;;13.74;63.93
73860;BME280;62197;51.632;13.700;2023-10-31T10:21:05;98703.84;;;12.82;66.79
73860;BME280;62197;51.632;13.700;2023-10-31T10:23:31;98717.91;;;12.68;68.29
73860;BME280;62197;51.632;13.700;2023-10-31T10:25:57;98720.53;;;12.68;66.72
73860;BME280;62197;51.632;13.700;2023-10-31T10:28:24;98728.00;;;12.64;66.69
73860;BME280;62197;51.632;13.700;2023-10-31T10:30:54;98732.56;;;13.28;65.28
73860;BME280;62197;51.632;13.700;2023-10-31T10:33:20;98728.84;;;13.43;64.95
73860;BME280;62197;51.632;13.700;2023-10-31T10:35:46;98719.63;;;13.88;62.77
73860;BME280;62197;51.632;13.700;2023-10-31T10:38:19;98718.00;;;13.87;63.24
73860;BME280;62197;51.632;13.700;2023-10-31T10:40:46;98732.13;;;14.01;62.89
73860;BME280;62197;51.632;13.700;2023-10-31T10:43:16;98737.97;;;14.31;62.04
73860;BME280;62197;51.632;13.700;2023-10-31T10:45:43;98749.50;;;14.51;60.93
73860;BME280;62197;51.632;13.700;2023-10-31T10:48:11;98744.16;;;14.99;59.72
73860;BME280;62197;51.632;13.700;2023-10-31T10:50:42;98733.22;;;15.55;57.11
73860;BME280;62197;51.632;13.700;2023-10-31T10:55:51;98730.63;;;16.46;54.44
73860;BME280;62197;51.632;13.700;2023-10-31T10:58:29;98732.81;;;17.38;52.49
73860;BME280;62197;51.632;13.700;2023-10-31T11:00:58;98742.41;;;17.39;52.37
73860;BME280;62197;51.632;13.700;2023-10-31T11:03:24;98743.44;;;18.13;49.85
73860;BME280;62197;51.632;13.700;2023-10-31T11:05:51;98731.78;;;16.70;51.59
73860;BME280;62197;51.632;13.700;2023-10-31T11:08:17;98750.78;;;15.63;53.74
73860;BME280;62197;51.632;13.700;2023-10-31T11:10:45;98757.69;;;16.10;54.08
73860;BME280;62197;51.632;13.700;2023-10-31T11:13:11;98773.03;;;14.81;57.02
73860;BME280;62197;51.632;13.700;2023-10-31T11:15:37;98770.34;;;14.33;58.79
73860;BME280;62197;51.632;13.700;2023-10-31T11:18:04;98778.47;;;13.97;59.94
73860;BME280;62197;51.632;13.700;2023-10-31T11:20:31;98768.22;;;13.87;59.61
73860;BME280;62197;51.632;13.700;2023-10-31T11:22:56;98767.91;;;13.76;60.98
73860;BME280;62197;51.632;13.700;2023-10-31T11:25:23;98777.63;;;13.97;61.43
73860;BME280;62197;51.632;13.700;2023-10-31T11:27:53;98766.59;;;13.86;61.38
73860;BME280;62197;51.632;13.700;2023-10-31T11:30:26;98766.97;;;13.83;61.71
73860;BME280;62197;51.632;13.700;2023-10-31T11:32:53;98775.47;;;13.57;61.72
73860;BME280;62197;51.632;13.700;2023-10-31T11:35:19;98763.09;;;13.58;62.59
73860;BME280;62197;51.632;13.700;2023-10-31T11:38:04;98759.88;;;13.63;61.36
73860;BME280;62197;51.632;13.700;2023-10-31T11:40:33;98750.31;;;13.62;60.05
73860;BME280;62197;51.632;13.700;2023-10-31T11:43:03;98765.59;;;13.66;61.61
73860;BME280;62197;51.632;13.700;2023-10-31T11:45:33;98761.31;;;13.65;61.68
73860;BME280;62197;51.632;13.700;2023-10-31T11:47:59;98769.38;;;13.57;61.63
73860;BME280;62197;51.632;13.700;2023-10-31T11:50:24;98783.44;;;13.36;62.60
73860;BME280;62197;51.632;13.700;2023-10-31T11:53:13;98787.72;;;13.37;62.73
73860;BME280;62197;51.632;13.700;2023-10-31T11:55:44;98796.25;;;13.39;62.34
73860;BME280;62197;51.632;13.700;2023-10-31T11:58:23;98787.50;;;13.17;62.52
73860;BME280;62197;51.632;13.700;2023-10-31T12:00:50;98780.59;;;13.16;62.80
73860;BME280;62197;51.632;13.700;2023-10-31T12:03:17;98790.47;;;13.14;63.59
73860;BME280;62197;51.632;13.700;2023-10-31T12:05:53;98792.78;;;13.17;62.77
73860;BME280;62197;51.632;13.700;2023-10-31T12:08:30;98795.03;;;13.20;63.32
73860;BME280;62197;51.632;13.700;2023-10-31T12:13:36;98787.13;;;13.20;63.27
73860;BME280;62197;51.632;13.700;2023-10-31T12:16:03;98801.84;;;13.15;63.71
73860;BME280;62197;51.632;13.700;2023-10-31T12:18:28;98795.50;;;13.09;64.13
73860;BME280;62197;51.632;13.700;2023-10-31T12:20:54;98806.06;;;13.09;64.35
73860;BME280;62197;51.632;13.700;2023-10-31T12:23:20;98818.00;;;13.05;64.88
73860;BME280;62197;51.632;13.700;2023-10-31T12:25:49;98813.34;;;13.07;63.72
73860;BME280;62197;51.632;13.700;2023-10-31T12:28:21;98815.16;;;13.21;64.05
73860;BME280;62197;51.632;13.700;2023-10-31T12:30:49;98809.41;;;13.33;64.07
73860;BME280;62197;51.632;13.700;2023-10-31T12:33:15;98806.31;;;13.29;63.69
73860;BME280;62197;51.632;13.700;2023-10-31T12:35:42;98806.50;;;13.28;62.98
73860;BME280;62197;51.632;13.700;2023-10-31T12:38:10;98830.25;;;13.28;63.75
73860;BME280;62197;51.632;13.700;2023-10-31T12:40:36;98837.19;;;13.29;64.50
73860;BME280;62197;51.632;13.700;2023-10-31T12:43:02;98833.38;;;13.16;63.75
73860;BME280;62197;51.632;13.700;2023-10-31T12:45:28;98834.84;;;13.04;63.54
73860;BME280;62197;51.632;13.700;2023-10-31T12:48:08;98843.00;;;13.09;64.43
73860;BME280;62197;51.632;13.700;2023-10-31T12:50:35;98824.47;;;13.03;64.35